createdAt,value
2019-02-17T00:04:40.720Z,12.83
2019-02-17T00:09:46.052Z,12.33
2019-02-17T00:14:51.442Z,11.77
2019-02-17T00:19:56.770Z,13.10
2019-02-17T00:25:02.067Z,13.67
2019-02-17T00:30:07.463Z,12.73
2019-02-17T00:35:12.942Z,14.03
2019-02-17T00:40:18.285Z,12.93
2019-02-17T00:45:23.577Z,13.17
2019-02-17T00:50:28.990Z,12.70
2019-02-17T00:55:34.290Z,12.93
2019-02-17T01:00:39.664Z,12.57
2019-02-17T01:05:44.989Z,12.93
2019-02-17T01:10:50.321Z,12.97
2019-02-17T01:15:55.736Z,12.80
2019-02-17T01:21:01.160Z,13.53
2019-02-17T01:26:06.497Z,12.90
2019-02-17T01:31:11.776Z,12.87
2019-02-17T01:36:17.160Z,12.57
2019-02-17T01:41:22.503Z,13.10
2019-02-17T01:46:27.842Z,13.40
2019-02-17T01:51:33.233Z,13.53
2019-02-17T01:56:38.784Z,13.40
2019-02-17T02:01:44.185Z,13.07
2019-02-17T02:06:49.589Z,13.63
2019-02-17T02:11:55.007Z,13.97
2019-02-17T02:17:00.423Z,13.27
2019-02-17T02:22:05.899Z,14.27
2019-02-17T02:27:11.198Z,13.60
2019-02-17T02:32:16.589Z,13.97
2019-02-17T02:37:22.087Z,14.37
2019-02-17T02:42:27.406Z,14.43
2019-02-17T02:47:32.684Z,13.97
2019-02-17T02:52:38.000Z,14.40
2019-02-17T02:57:43.393Z,13.60
2019-02-17T03:02:48.665Z,14.67
2019-02-17T03:07:53.964Z,15.13
2019-02-17T03:12:59.342Z,14.80
2019-02-17T03:18:04.666Z,14.67
2019-02-17T03:23:09.983Z,14.20
2019-02-17T03:28:15.426Z,14.40
2019-02-17T03:33:20.910Z,14.50
2019-02-17T03:38:26.492Z,15.00
2019-02-17T03:43:31.772Z,14.90
2019-02-17T03:48:37.157Z,14.83
2019-02-17T03:53:42.496Z,14.10
2019-02-17T03:58:47.892Z,15.30
2019-02-17T04:03:53.179Z,14.57
2019-02-17T04:08:58.521Z,15.27
2019-02-17T04:14:03.983Z,14.93
2019-02-17T04:19:09.367Z,16.20
2019-02-17T04:24:14.697Z,15.53
2019-02-17T04:29:20.124Z,16.63
2019-02-17T04:34:25.605Z,15.20
2019-02-17T04:39:30.930Z,15.50
2019-02-17T04:44:36.333Z,16.00
2019-02-17T04:49:41.680Z,15.70
2019-02-17T04:54:47.000Z,15.00
2019-02-17T04:59:52.387Z,15.17
2019-02-17T05:04:57.718Z,15.77
2019-02-17T05:10:03.153Z,16.90
2019-02-17T05:15:08.941Z,15.50
2019-02-17T05:20:14.625Z,15.63
2019-02-17T05:25:20.099Z,15.30
2019-02-17T05:30:25.430Z,16.30
2019-02-17T05:35:30.891Z,16.60
2019-02-17T05:40:36.686Z,17.40
2019-02-17T05:45:42.121Z,16.57
2019-02-17T05:50:47.410Z,16.27
2019-02-17T05:55:52.746Z,17.03
2019-02-17T06:01:03.766Z,17.60
2019-02-17T06:06:05.136Z,16.80
2019-02-17T06:11:10.461Z,16.73
2019-02-17T06:16:15.906Z,16.47
2019-02-17T06:21:21.335Z,17.07
2019-02-17T06:26:26.677Z,17.13
2019-02-17T06:31:31.967Z,16.90
2019-02-17T06:36:37.332Z,16.60
2019-02-17T06:41:42.699Z,16.33
2019-02-17T06:46:52.043Z,17.57
2019-02-17T06:51:57.489Z,16.43
2019-02-17T06:57:21.689Z,16.60
2019-02-17T07:02:27.231Z,17.03
2019-02-17T07:07:32.695Z,16.90
2019-02-17T07:12:38.043Z,17.67
2019-02-17T07:17:43.505Z,17.50
2019-02-17T07:22:48.845Z,17.53
2019-02-17T07:27:54.304Z,16.73
2019-02-17T07:32:59.602Z,16.00
2019-02-17T07:38:05.120Z,16.03
2019-02-17T07:43:10.623Z,16.57
2019-02-17T07:48:16.128Z,16.33
2019-02-17T07:53:21.550Z,14.90
2019-02-17T07:58:28.388Z,15.00
2019-02-17T08:03:33.818Z,14.13
2019-02-17T08:08:39.806Z,14.47
2019-02-17T08:13:47.973Z,15.10
2019-02-17T08:18:53.389Z,15.10
2019-02-17T08:23:58.843Z,14.20
2019-02-17T08:29:04.199Z,14.07
2019-02-17T08:34:09.671Z,14.30
2019-02-17T08:39:15.263Z,15.07
2019-02-17T08:44:20.629Z,14.47
2019-02-17T08:49:26.100Z,13.57
2019-02-17T08:54:31.633Z,14.77
2019-02-17T08:59:36.980Z,14.07
2019-02-17T09:04:42.337Z,13.93
2019-02-17T09:09:47.759Z,13.53
2019-02-17T09:14:53.165Z,13.43
2019-02-17T09:19:58.488Z,13.90
2019-02-17T09:25:03.790Z,13.90
2019-02-17T09:30:13.858Z,13.73
2019-02-17T09:35:19.533Z,12.93
2019-02-17T09:40:24.985Z,13.77
2019-02-17T09:45:30.358Z,13.83
2019-02-17T09:50:35.817Z,13.27
2019-02-17T09:55:41.108Z,13.47
2019-02-17T10:00:46.452Z,13.67
2019-02-17T10:05:52.154Z,12.93
2019-02-17T10:10:57.502Z,13.20
2019-02-17T10:16:02.833Z,13.67
2019-02-17T10:21:08.228Z,13.57
2019-02-17T10:26:13.677Z,13.90
2019-02-17T10:31:19.161Z,12.97
2019-02-17T10:36:24.588Z,12.77
2019-02-17T10:41:30.051Z,12.73
2019-02-17T10:46:35.410Z,12.70
2019-02-17T10:51:40.736Z,12.93
2019-02-17T10:56:46.114Z,12.87
2019-02-17T11:01:51.565Z,12.37
2019-02-17T11:06:56.878Z,12.40
2019-02-17T11:12:02.179Z,12.77
2019-02-17T11:17:07.514Z,11.80
2019-02-17T11:22:22.729Z,11.30
2019-02-17T11:27:20.110Z,12.27
2019-02-17T11:32:25.525Z,11.53
2019-02-17T11:37:30.979Z,11.17
2019-02-17T11:42:36.463Z,10.60
2019-02-17T11:47:41.814Z,11.20
2019-02-17T11:52:47.199Z,10.83
2019-02-17T11:57:54.252Z,10.70
2019-02-17T12:03:07.571Z,11.20
2019-02-17T12:08:06.654Z,9.77
2019-02-17T12:13:11.988Z,10.10
2019-02-17T12:18:17.423Z,9.40
2019-02-17T12:23:27.865Z,10.13
2019-02-17T12:28:36.929Z,8.97
2019-02-17T12:33:42.330Z,9.17
2019-02-17T12:38:47.892Z,9.33
2019-02-17T12:43:53.251Z,8.67
2019-02-17T12:48:58.673Z,9.67
2019-02-17T12:54:04.005Z,9.40
2019-02-17T12:59:09.454Z,9.23
2019-02-17T13:04:14.862Z,9.07
2019-02-17T13:09:20.145Z,8.90
2019-02-17T13:14:25.454Z,9.83
2019-02-17T13:19:30.828Z,9.17
2019-02-17T13:24:36.177Z,8.80
2019-02-17T13:29:41.590Z,8.53
2019-02-17T13:34:47.340Z,9.13
2019-02-17T13:39:52.684Z,9.00
2019-02-17T13:44:58.071Z,7.80
2019-02-17T13:50:03.393Z,8.00
2019-02-17T13:55:09.082Z,8.83
2019-02-17T14:00:15.744Z,8.73
2019-02-17T14:05:21.046Z,8.20
2019-02-17T14:10:26.451Z,8.07
2019-02-17T14:15:32.067Z,7.97
2019-02-17T14:20:37.468Z,7.13
2019-02-17T14:25:43.104Z,6.90
2019-02-17T14:30:48.428Z,6.50
2019-02-17T14:35:53.797Z,6.60
2019-02-17T14:40:59.251Z,6.40
2019-02-17T14:46:04.594Z,6.67
2019-02-17T14:51:10.111Z,6.60
2019-02-17T14:56:15.465Z,6.67
2019-02-17T15:01:20.814Z,6.60
2019-02-17T15:06:26.219Z,6.67
2019-02-17T15:11:31.667Z,6.57
2019-02-17T15:16:37.202Z,6.63
2019-02-17T15:21:42.558Z,6.70
2019-02-17T15:26:48.017Z,7.27
2019-02-17T15:31:53.476Z,7.57
2019-02-17T15:36:58.927Z,7.20
2019-02-17T15:42:04.222Z,6.60
2019-02-17T15:47:09.551Z,6.97
2019-02-17T15:52:14.899Z,7.10
2019-02-17T15:57:23.579Z,6.30
2019-02-17T16:02:28.883Z,6.53
2019-02-17T16:07:34.193Z,6.33
2019-02-17T16:12:39.526Z,6.53
2019-02-17T16:17:44.829Z,6.60
2019-02-17T16:22:50.136Z,6.40
2019-02-17T16:27:55.476Z,6.87
2019-02-17T16:33:00.897Z,6.43
2019-02-17T16:38:06.247Z,6.13
2019-02-17T16:43:11.825Z,7.23
2019-02-17T16:48:17.092Z,6.23
2019-02-17T16:53:22.466Z,6.23
2019-02-17T16:58:27.783Z,6.50
2019-02-17T17:03:33.101Z,6.37
2019-02-17T17:08:38.532Z,6.70
2019-02-17T17:13:43.832Z,6.63
2019-02-17T17:18:49.172Z,6.23
2019-02-17T17:23:54.644Z,5.83
2019-02-17T17:28:59.976Z,6.30
2019-02-17T17:34:05.366Z,6.23
2019-02-17T17:39:10.708Z,5.93
2019-02-17T17:44:16.026Z,6.90
2019-02-17T17:49:21.503Z,6.67
2019-02-17T17:54:27.058Z,7.60
2019-02-17T17:59:32.521Z,6.40
2019-02-17T18:04:37.856Z,6.90
2019-02-17T18:09:43.244Z,7.87
2019-02-17T18:14:48.602Z,6.83
2019-02-17T18:19:53.927Z,7.23
2019-02-17T18:24:59.742Z,7.40
2019-02-17T18:30:06.418Z,6.27
2019-02-17T18:35:19.695Z,7.03
2019-02-17T18:40:21.111Z,7.53
2019-02-17T18:45:27.335Z,7.33
2019-02-17T18:50:33.375Z,7.87
2019-02-17T18:55:39.746Z,7.40
2019-02-17T19:00:45.057Z,7.17
2019-02-17T19:05:50.435Z,7.17
2019-02-17T19:10:55.825Z,7.67
2019-02-17T19:16:01.217Z,7.50
2019-02-17T19:21:06.695Z,7.77
2019-02-17T19:26:12.039Z,8.30
2019-02-17T19:31:17.454Z,8.27
2019-02-17T19:36:25.913Z,8.73
2019-02-17T19:41:33.937Z,8.03
2019-02-17T19:46:41.609Z,8.07
2019-02-17T19:51:49.662Z,7.47
2019-02-17T19:56:59.901Z,7.97
2019-02-17T20:02:09.083Z,7.60
2019-02-17T20:07:17.379Z,7.87
2019-02-17T20:12:23.527Z,7.97
2019-02-17T20:17:30.320Z,8.90
2019-02-17T20:22:35.780Z,8.13
2019-02-17T20:27:41.090Z,6.97
2019-02-17T20:32:46.490Z,8.77
2019-02-17T20:37:51.817Z,7.90
2019-02-17T20:42:57.146Z,7.73
2019-02-17T20:48:02.535Z,7.43
2019-02-17T20:53:08.013Z,6.77
2019-02-17T20:58:13.446Z,7.00
2019-02-17T21:03:18.750Z,7.87
2019-02-17T21:08:24.315Z,7.60
2019-02-17T21:13:29.787Z,8.03
2019-02-17T21:18:35.237Z,7.27
2019-02-17T21:23:40.517Z,8.93
2019-02-17T21:28:46.056Z,7.73
2019-02-17T21:33:51.607Z,8.50
2019-02-17T21:38:58.748Z,8.17
2019-02-17T21:44:04.216Z,7.43
2019-02-17T21:49:09.656Z,7.57
2019-02-17T21:54:15.094Z,8.63
2019-02-17T21:59:20.367Z,7.47
2019-02-17T22:04:25.712Z,8.20
2019-02-17T22:09:31.038Z,8.37
2019-02-17T22:14:36.368Z,7.57
2019-02-17T22:19:41.687Z,8.50
2019-02-17T22:24:47.027Z,8.43
2019-02-17T22:29:52.349Z,8.70
2019-02-17T22:34:57.827Z,9.10
2019-02-17T22:40:03.178Z,8.17
2019-02-17T22:45:09.042Z,7.97
2019-02-17T22:50:14.532Z,8.77
2019-02-17T22:55:20.038Z,9.00
2019-02-17T23:00:57.796Z,8.80
2019-02-17T23:06:03.367Z,8.10
2019-02-17T23:11:08.662Z,8.63
2019-02-17T23:16:14.020Z,9.27
2019-02-17T23:21:19.428Z,8.13
2019-02-17T23:26:24.965Z,9.37
2019-02-17T23:31:30.369Z,8.87
2019-02-17T23:36:35.766Z,8.50
2019-02-17T23:41:41.195Z,8.87
2019-02-17T23:46:46.587Z,9.17
2019-02-17T23:51:51.903Z,9.30
2019-02-17T23:56:57.510Z,9.10
